createdAt,value
2022-10-17T00:04:03.742Z,91.15
2022-10-17T00:09:05.951Z,91.40
2022-10-17T00:14:08.416Z,92.01
2022-10-17T00:19:23.936Z,90.79
2022-10-17T00:24:26.276Z,90.13
2022-10-17T00:29:30.910Z,88.20
2022-10-17T00:34:33.218Z,85.52
2022-10-17T00:39:35.497Z,86.37
2022-10-17T00:44:40.465Z,87.53
2022-10-17T00:49:47.439Z,88.37
2022-10-17T00:54:54.103Z,87.50
2022-10-17T00:59:58.010Z,88.12
2022-10-17T01:05:00.563Z,88.15
2022-10-17T01:10:02.820Z,87.66
2022-10-17T01:15:16.343Z,87.31
2022-10-17T01:20:18.568Z,86.62
2022-10-17T01:25:29.407Z,86.05
2022-10-17T01:30:50.293Z,84.63
2022-10-17T01:36:04.796Z,83.77
2022-10-17T01:41:11.617Z,83.75
2022-10-17T01:46:17.943Z,81.79
2022-10-17T01:51:27.691Z,80.50
2022-10-17T01:56:33.434Z,78.77
2022-10-17T02:01:37.072Z,80.00
2022-10-17T02:06:41.588Z,80.33
2022-10-17T02:11:58.808Z,77.97
2022-10-17T02:17:21.167Z,75.36
2022-10-17T02:22:38.249Z,72.38
2022-10-17T02:28:02.175Z,71.72
2022-10-17T02:33:10.129Z,70.75
2022-10-17T02:38:12.636Z,69.51
2022-10-17T02:43:15.080Z,69.47
2022-10-17T02:48:46.004Z,69.50
2022-10-17T02:53:57.178Z,69.98
2022-10-17T02:59:05.587Z,66.13
2022-10-17T03:04:09.348Z,65.13
2022-10-17T03:09:12.155Z,66.57
2022-10-17T03:14:16.326Z,66.29
2022-10-17T03:19:20.290Z,65.22
2022-10-17T03:24:22.962Z,64.64
2022-10-17T03:29:31.688Z,65.03
2022-10-17T03:34:34.433Z,64.59
2022-10-17T03:39:38.588Z,64.50
2022-10-17T03:44:46.095Z,64.02
2022-10-17T03:49:48.631Z,64.46
2022-10-17T03:54:53.688Z,63.40
2022-10-17T04:00:16.228Z,63.51
2022-10-17T04:05:33.687Z,63.78
2022-10-17T04:10:36.177Z,64.54
2022-10-17T04:15:38.444Z,65.04
2022-10-17T04:20:41.329Z,65.10
2022-10-17T04:25:44.909Z,64.56
2022-10-17T04:30:49.897Z,66.96
2022-10-17T04:36:01.113Z,67.18
2022-10-17T04:41:05.378Z,67.18
2022-10-17T04:46:11.476Z,67.57
2022-10-17T04:51:15.485Z,67.86
2022-10-17T04:56:44.064Z,68.45
2022-10-17T05:01:46.349Z,69.16
2022-10-17T05:06:48.834Z,69.79
2022-10-17T05:12:11.451Z,69.99
2022-10-17T05:17:17.773Z,70.39
2022-10-17T05:22:22.487Z,70.06
2022-10-17T05:27:24.820Z,70.29
2022-10-17T05:32:27.455Z,70.75
2022-10-17T05:37:33.344Z,71.26
2022-10-17T05:42:37.536Z,70.91
2022-10-17T05:47:41.036Z,69.58
2022-10-17T05:52:46.474Z,69.57
2022-10-17T05:57:52.919Z,70.41
2022-10-17T06:02:57.920Z,70.66
2022-10-17T06:08:01.998Z,70.47
2022-10-17T06:13:09.199Z,70.26
2022-10-17T06:18:11.858Z,70.35
2022-10-17T06:23:14.454Z,68.67
2022-10-17T06:28:37.171Z,68.62
2022-10-17T06:33:42.066Z,68.42
2022-10-17T06:38:45.157Z,68.30
2022-10-17T06:44:09.679Z,66.41
2022-10-17T06:49:25.246Z,66.01
2022-10-17T06:54:34.724Z,65.19
2022-10-17T06:59:55.609Z,64.40
2022-10-17T07:05:03.631Z,61.86
2022-10-17T07:10:08.796Z,59.82
2022-10-17T07:15:15.870Z,58.29
2022-10-17T07:20:20.936Z,56.73
2022-10-17T07:25:25.663Z,57.86
2022-10-17T07:30:33.041Z,53.87
2022-10-17T07:35:43.528Z,53.76
2022-10-17T07:46:47.385Z,54.73
2022-10-17T07:51:52.911Z,54.08
2022-10-17T07:56:59.432Z,53.53
2022-10-17T08:02:01.840Z,53.49
2022-10-17T08:07:19.717Z,53.61
2022-10-17T08:12:25.155Z,54.03
2022-10-17T08:17:27.546Z,54.22
2022-10-17T08:22:30.134Z,55.43
2022-10-17T08:27:33.782Z,56.02
2022-10-17T08:32:36.134Z,55.43
2022-10-17T08:37:38.423Z,55.34
2022-10-17T08:42:43.785Z,53.94
2022-10-17T08:47:49.076Z,52.54
2022-10-17T08:52:54.755Z,48.97
2022-10-17T08:57:57.099Z,49.16
2022-10-17T09:03:08.453Z,47.54
2022-10-17T09:08:13.711Z,44.29
2022-10-17T09:13:18.578Z,43.90
2022-10-17T09:18:34.088Z,40.92
2022-10-17T09:23:42.699Z,38.62
2022-10-17T09:28:46.669Z,40.60
2022-10-17T09:33:54.159Z,40.92
2022-10-17T09:39:16.023Z,39.53
2022-10-17T09:44:20.345Z,41.64
2022-10-17T09:49:29.426Z,38.16
2022-10-17T09:54:56.919Z,42.15
2022-10-17T10:00:00.704Z,40.23
2022-10-17T10:05:04.731Z,39.33
2022-10-17T10:10:23.072Z,39.22
2022-10-17T10:15:37.157Z,39.98
2022-10-17T10:20:39.425Z,47.79
2022-10-17T10:26:20.164Z,48.73
2022-10-17T10:31:30.903Z,49.61
2022-10-17T10:36:43.899Z,50.83
2022-10-17T10:41:47.749Z,51.39
2022-10-17T10:47:11.620Z,52.18
2022-10-17T10:52:24.198Z,52.18
2022-10-17T10:57:29.475Z,53.35
2022-10-17T11:02:40.422Z,53.50
2022-10-17T11:07:45.907Z,54.45
2022-10-17T11:13:17.858Z,54.79
2022-10-17T11:18:35.096Z,55.07
2022-10-17T11:23:46.656Z,55.04
2022-10-17T11:28:49.090Z,55.11
2022-10-17T11:33:51.329Z,53.89
2022-10-17T11:39:02.485Z,54.75
2022-10-17T11:44:13.705Z,52.78
2022-10-17T11:49:28.643Z,53.64
2022-10-17T11:54:39.700Z,54.99
2022-10-17T12:00:00.549Z,54.55
2022-10-17T12:05:21.643Z,55.20
2022-10-17T12:10:37.621Z,54.73
2022-10-17T12:15:42.619Z,54.97
2022-10-17T12:20:58.133Z,55.16
2022-10-17T12:26:05.460Z,54.43
2022-10-17T12:31:13.756Z,54.06
2022-10-17T12:36:22.848Z,54.58
2022-10-17T12:41:49.616Z,54.17
2022-10-17T12:46:59.598Z,54.26
2022-10-17T12:52:23.977Z,55.42
2022-10-17T12:57:44.234Z,54.64
2022-10-17T13:02:46.716Z,54.96
2022-10-17T13:07:49.882Z,54.79
2022-10-17T13:12:54.744Z,55.57
2022-10-17T13:18:02.855Z,55.86
2022-10-17T13:23:05.139Z,55.34
2022-10-17T13:28:14.489Z,55.96
2022-10-17T13:33:26.977Z,55.87
2022-10-17T13:38:32.479Z,55.84
2022-10-17T13:43:35.025Z,55.75
2022-10-17T13:48:40.424Z,56.23
2022-10-17T13:53:46.368Z,56.80
2022-10-17T13:58:51.985Z,57.28
2022-10-17T14:10:32.520Z,57.45
2022-10-17T14:15:35.759Z,57.53
2022-10-17T14:21:19.762Z,57.48
2022-10-17T14:26:07.856Z,57.99
2022-10-17T14:31:15.916Z,58.21
2022-10-17T14:36:19.484Z,58.51
2022-10-17T14:41:43.245Z,58.70
2022-10-17T14:46:50.492Z,59.76
2022-10-17T14:52:15.209Z,61.19
